Aviation Digital Data Service (ADDS)

Output produced by METARs form (2011 UTC 20 August 2019)
found at http://www.aviationweather.gov/metar/data/
 
METAR text: UKDD 202000Z 01004MPS CAVOK 21/14 Q1021 R08/090070 NOSIG
Conditions at: UKDD (DNIPROPETROVSK , UA) observed 2000 UTC 20 August 2019
Temperature: 21.0°C (70°F)
Dewpoint: 14.0°C (57°F) [RH = 64%]
Pressure (altimeter): 30.15 inches Hg (1021.0 mb)
Winds: from the N (10 degrees) at 9 MPH (8 knots; 4.1 m/s)
Visibility: 6 or more miles (10+ km)
Ceiling: ceiling and visibility are OK
Clouds: unknown
Weather: no significant weather observed at this time

METAR text: UKDD 201930Z 36003MPS CAVOK 21/14 Q1021 R08/090070 NOSIG
Conditions at: UKDD (DNIPROPETROVSK , UA) observed 1930 UTC 20 August 2019
Temperature: 21.0°C (70°F)
Dewpoint: 14.0°C (57°F) [RH = 64%]
Pressure (altimeter): 30.15 inches Hg (1021.0 mb)
Winds: from the N (360 degrees) at 7 MPH (6 knots; 3.1 m/s)
Visibility: 6 or more miles (10+ km)
Ceiling: ceiling and visibility are OK
Clouds: unknown
Weather: no significant weather observed at this time

METAR text: UKDD 201900Z 36003MPS CAVOK 21/14 Q1021 R08/090070 NOSIG
Conditions at: UKDD (DNIPROPETROVSK , UA) observed 1900 UTC 20 August 2019
Temperature: 21.0°C (70°F)
Dewpoint: 14.0°C (57°F) [RH = 64%]
Pressure (altimeter): 30.15 inches Hg (1021.0 mb)
Winds: from the N (360 degrees) at 7 MPH (6 knots; 3.1 m/s)
Visibility: 6 or more miles (10+ km)
Ceiling: ceiling and visibility are OK
Clouds: unknown
Weather: no significant weather observed at this time

METAR text: UKDD 201830Z 36003MPS CAVOK 22/15 Q1021 R08/090070 NOSIG
Conditions at: UKDD (DNIPROPETROVSK , UA) observed 1830 UTC 20 August 2019
Temperature: 22.0°C (72°F)
Dewpoint: 15.0°C (59°F) [RH = 65%]
Pressure (altimeter): 30.15 inches Hg (1021.0 mb)
Winds: from the N (360 degrees) at 7 MPH (6 knots; 3.1 m/s)
Visibility: 6 or more miles (10+ km)
Ceiling: ceiling and visibility are OK
Clouds: unknown
Weather: no significant weather observed at this time

METAR text: UKDD 201800Z 01002MPS CAVOK 22/15 Q1021 R08/090070 NOSIG
Conditions at: UKDD (DNIPROPETROVSK , UA) observed 1800 UTC 20 August 2019
Temperature: 22.0°C (72°F)
Dewpoint: 15.0°C (59°F) [RH = 65%]
Pressure (altimeter): 30.15 inches Hg (1021.0 mb)
Winds: from the N (10 degrees) at 5 MPH (4 knots; 2.1 m/s)
Visibility: 6 or more miles (10+ km)
Ceiling: ceiling and visibility are OK
Clouds: unknown
Weather: no significant weather observed at this time

METAR text: UKDD 201730Z 01002MPS CAVOK 23/15 Q1021 R08/090070 NOSIG
Conditions at: UKDD (DNIPROPETROVSK , UA) observed 1730 UTC 20 August 2019
Temperature: 23.0°C (73°F)
Dewpoint: 15.0°C (59°F) [RH = 61%]
Pressure (altimeter): 30.15 inches Hg (1021.0 mb)
Winds: from the N (10 degrees) at 5 MPH (4 knots; 2.1 m/s)
Visibility: 6 or more miles (10+ km)
Ceiling: ceiling and visibility are OK
Clouds: unknown
Weather: no significant weather observed at this time

METAR text: UKDD 201700Z 02002MPS CAVOK 24/15 Q1020 R08/090070 NOSIG
Conditions at: UKDD (DNIPROPETROVSK , UA) observed 1700 UTC 20 August 2019
Temperature: 24.0°C (75°F)
Dewpoint: 15.0°C (59°F) [RH = 57%]
Pressure (altimeter): 30.12 inches Hg (1020.0 mb)
Winds: from the NNE (20 degrees) at 5 MPH (4 knots; 2.1 m/s)
Visibility: 6 or more miles (10+ km)
Ceiling: ceiling and visibility are OK
Clouds: unknown
Weather: no significant weather observed at this time

METAR text: UKDD 201630Z 03002MPS 360V060 CAVOK 25/15 Q1020 R08/090070 NOSIG
Conditions at: UKDD (DNIPROPETROVSK , UA) observed 1630 UTC 20 August 2019
Temperature: 25.0°C (77°F)
Dewpoint: 15.0°C (59°F) [RH = 54%]
Pressure (altimeter): 30.12 inches Hg (1020.0 mb)
Winds: from the NNE (30 degrees) at 5 MPH (4 knots; 2.1 m/s)
Visibility: 6 or more miles (10+ km)
Ceiling: ceiling and visibility are OK
Clouds: unknown
Weather: no significant weather observed at this time

METAR text: UKDD 201600Z 01002MPS CAVOK 27/15 Q1020 R08/090070 NOSIG
Conditions at: UKDD (DNIPROPETROVSK , UA) observed 1600 UTC 20 August 2019
Temperature: 27.0°C (81°F)
Dewpoint: 15.0°C (59°F) [RH = 48%]
Pressure (altimeter): 30.12 inches Hg (1020.0 mb)
Winds: from the N (10 degrees) at 5 MPH (4 knots; 2.1 m/s)
Visibility: 6 or more miles (10+ km)
Ceiling: ceiling and visibility are OK
Clouds: unknown
Weather: no significant weather observed at this time

METAR text: UKDD 201530Z 35003MPS CAVOK 29/15 Q1020 R08/090070 NOSIG
Conditions at: UKDD (DNIPROPETROVSK , UA) observed 1530 UTC 20 August 2019
Temperature: 29.0°C (84°F)
Dewpoint: 15.0°C (59°F) [RH = 43%]
Pressure (altimeter): 30.12 inches Hg (1020.0 mb)
Winds: from the N (350 degrees) at 7 MPH (6 knots; 3.1 m/s)
Visibility: 6 or more miles (10+ km)
Ceiling: ceiling and visibility are OK
Clouds: unknown
Weather: no significant weather observed at this time

METAR text: UKDD 201500Z 01003MPS 320V090 CAVOK 30/14 Q1020 R26/090070 NOSIG
Conditions at: UKDD (DNIPROPETROVSK , UA) observed 1500 UTC 20 August 2019
Temperature: 30.0°C (86°F)
Dewpoint: 14.0°C (57°F) [RH = 38%]
Pressure (altimeter): 30.12 inches Hg (1020.0 mb)
Winds: from the N (10 degrees) at 7 MPH (6 knots; 3.1 m/s)
Visibility: 6 or more miles (10+ km)
Ceiling: ceiling and visibility are OK
Clouds: unknown
Weather: no significant weather observed at this time

METAR text: UKDD 201430Z 36004MPS 320V040 CAVOK 31/13 Q1020 R26/090070 NOSIG
Conditions at: UKDD (DNIPROPETROVSK , UA) observed 1430 UTC 20 August 2019
Temperature: 31.0°C (88°F)
Dewpoint: 13.0°C (55°F) [RH = 33%]
Pressure (altimeter): 30.12 inches Hg (1020.0 mb)
Winds: from the N (360 degrees) at 9 MPH (8 knots; 4.1 m/s)
Visibility: 6 or more miles (10+ km)
Ceiling: ceiling and visibility are OK
Clouds: unknown
Weather: no significant weather observed at this time

METAR text: UKDD 201400Z 01005MPS 350V040 CAVOK 31/14 Q1020 R26/090070 NOSIG
Conditions at: UKDD (DNIPROPETROVSK , UA) observed 1400 UTC 20 August 2019
Temperature: 31.0°C (88°F)
Dewpoint: 14.0°C (57°F) [RH = 36%]
Pressure (altimeter): 30.12 inches Hg (1020.0 mb)
Winds: from the N (10 degrees) at 12 MPH (10 knots; 5.1 m/s)
Visibility: 6 or more miles (10+ km)
Ceiling: ceiling and visibility are OK
Clouds: unknown
Weather: no significant weather observed at this time

METAR text: UKDD 201330Z 34005MPS CAVOK 31/14 Q1020 R26/090070 NOSIG
Conditions at: UKDD (DNIPROPETROVSK , UA) observed 1330 UTC 20 August 2019
Temperature: 31.0°C (88°F)
Dewpoint: 14.0°C (57°F) [RH = 36%]
Pressure (altimeter): 30.12 inches Hg (1020.0 mb)
Winds: from the NNW (340 degrees) at 12 MPH (10 knots; 5.1 m/s)
Visibility: 6 or more miles (10+ km)
Ceiling: ceiling and visibility are OK
Clouds: unknown
Weather: no significant weather observed at this time

METAR text: UKDD 201300Z 35005MPS CAVOK 30/12 Q1020 R26/090070 NOSIG
Conditions at: UKDD (DNIPROPETROVSK , UA) observed 1300 UTC 20 August 2019
Temperature: 30.0°C (86°F)
Dewpoint: 12.0°C (54°F) [RH = 33%]
Pressure (altimeter): 30.12 inches Hg (1020.0 mb)
Winds: from the N (350 degrees) at 12 MPH (10 knots; 5.1 m/s)
Visibility: 6 or more miles (10+ km)
Ceiling: ceiling and visibility are OK
Clouds: unknown
Weather: no significant weather observed at this time

METAR text: UKDD 201230Z 02004MPS 330V060 CAVOK 31/14 Q1020 R26/090070 NOSIG
Conditions at: UKDD (DNIPROPETROVSK , UA) observed 1230 UTC 20 August 2019
Temperature: 31.0°C (88°F)
Dewpoint: 14.0°C (57°F) [RH = 36%]
Pressure (altimeter): 30.12 inches Hg (1020.0 mb)
Winds: from the NNE (20 degrees) at 9 MPH (8 knots; 4.1 m/s)
Visibility: 6 or more miles (10+ km)
Ceiling: ceiling and visibility are OK
Clouds: unknown
Weather: no significant weather observed at this time

METAR text: UKDD 201200Z 35004MPS CAVOK 31/13 Q1020 R26/090070 NOSIG
Conditions at: UKDD (DNIPROPETROVSK , UA) observed 1200 UTC 20 August 2019
Temperature: 31.0°C (88°F)
Dewpoint: 13.0°C (55°F) [RH = 33%]
Pressure (altimeter): 30.12 inches Hg (1020.0 mb)
Winds: from the N (350 degrees) at 9 MPH (8 knots; 4.1 m/s)
Visibility: 6 or more miles (10+ km)
Ceiling: ceiling and visibility are OK
Clouds: unknown
Weather: no significant weather observed at this time

METAR text: UKDD 201130Z 33004MPS CAVOK 31/15 Q1021 R26/090070 NOSIG
Conditions at: UKDD (DNIPROPETROVSK , UA) observed 1130 UTC 20 August 2019
Temperature: 31.0°C (88°F)
Dewpoint: 15.0°C (59°F) [RH = 38%]
Pressure (altimeter): 30.15 inches Hg (1021.0 mb)
Winds: from the NNW (330 degrees) at 9 MPH (8 knots; 4.1 m/s)
Visibility: 6 or more miles (10+ km)
Ceiling: ceiling and visibility are OK
Clouds: unknown
Weather: no significant weather observed at this time

METAR text: UKDD 201100Z 01004MPS 290V050 CAVOK 31/15 Q1021 R26/090070 NOSIG
Conditions at: UKDD (DNIPROPETROVSK , UA) observed 1100 UTC 20 August 2019
Temperature: 31.0°C (88°F)
Dewpoint: 15.0°C (59°F) [RH = 38%]
Pressure (altimeter): 30.15 inches Hg (1021.0 mb)
Winds: from the N (10 degrees) at 9 MPH (8 knots; 4.1 m/s)
Visibility: 6 or more miles (10+ km)
Ceiling: ceiling and visibility are OK
Clouds: unknown
Weather: no significant weather observed at this time

METAR text: UKDD 201030Z 01005MPS 330V040 CAVOK 30/15 Q1021 R08/090070 NOSIG
Conditions at: UKDD (DNIPROPETROVSK , UA) observed 1030 UTC 20 August 2019
Temperature: 30.0°C (86°F)
Dewpoint: 15.0°C (59°F) [RH = 40%]
Pressure (altimeter): 30.15 inches Hg (1021.0 mb)
Winds: from the N (10 degrees) at 12 MPH (10 knots; 5.1 m/s)
Visibility: 6 or more miles (10+ km)
Ceiling: ceiling and visibility are OK
Clouds: unknown
Weather: no significant weather observed at this time

METAR text: UKDD 201000Z 02003MPS 310V080 CAVOK 30/15 Q1021 R08/090070 NOSIG
Conditions at: UKDD (DNIPROPETROVSK , UA) observed 1000 UTC 20 August 2019
Temperature: 30.0°C (86°F)
Dewpoint: 15.0°C (59°F) [RH = 40%]
Pressure (altimeter): 30.15 inches Hg (1021.0 mb)
Winds: from the NNE (20 degrees) at 7 MPH (6 knots; 3.1 m/s)
Visibility: 6 or more miles (10+ km)
Ceiling: ceiling and visibility are OK
Clouds: unknown
Weather: no significant weather observed at this time

METAR text: UKDD 200930Z 01003MPS 320V070 CAVOK 29/15 Q1021 R08/090070 NOSIG
Conditions at: UKDD (DNIPROPETROVSK , UA) observed 0930 UTC 20 August 2019
Temperature: 29.0°C (84°F)
Dewpoint: 15.0°C (59°F) [RH = 43%]
Pressure (altimeter): 30.15 inches Hg (1021.0 mb)
Winds: from the N (10 degrees) at 7 MPH (6 knots; 3.1 m/s)
Visibility: 6 or more miles (10+ km)
Ceiling: ceiling and visibility are OK
Clouds: unknown
Weather: no significant weather observed at this time

METAR text: UKDD 200900Z 02003MPS 340V070 CAVOK 29/14 Q1021 R08/090070 NOSIG
Conditions at: UKDD (DNIPROPETROVSK , UA) observed 0900 UTC 20 August 2019
Temperature: 29.0°C (84°F)
Dewpoint: 14.0°C (57°F) [RH = 40%]
Pressure (altimeter): 30.15 inches Hg (1021.0 mb)
Winds: from the NNE (20 degrees) at 7 MPH (6 knots; 3.1 m/s)
Visibility: 6 or more miles (10+ km)
Ceiling: ceiling and visibility are OK
Clouds: unknown
Weather: no significant weather observed at this time

METAR text: UKDD 200830Z 01003MPS 320V070 CAVOK 28/16 Q1021 R08/090070 NOSIG
Conditions at: UKDD (DNIPROPETROVSK , UA) observed 0830 UTC 20 August 2019
Temperature: 28.0°C (82°F)
Dewpoint: 16.0°C (61°F) [RH = 48%]
Pressure (altimeter): 30.15 inches Hg (1021.0 mb)
Winds: from the N (10 degrees) at 7 MPH (6 knots; 3.1 m/s)
Visibility: 6 or more miles (10+ km)
Ceiling: ceiling and visibility are OK
Clouds: unknown
Weather: no significant weather observed at this time

METAR text: UKDD 200800Z 01003MPS 320V050 CAVOK 27/17 Q1022 R08/090070 NOSIG
Conditions at: UKDD (DNIPROPETROVSK , UA) observed 0800 UTC 20 August 2019
Temperature: 27.0°C (81°F)
Dewpoint: 17.0°C (63°F) [RH = 54%]
Pressure (altimeter): 30.18 inches Hg (1022.0 mb)
Winds: from the N (10 degrees) at 7 MPH (6 knots; 3.1 m/s)
Visibility: 6 or more miles (10+ km)
Ceiling: ceiling and visibility are OK
Clouds: unknown
Weather: no significant weather observed at this time

METAR text: UKDD 200730Z 01003MPS 340V070 CAVOK 26/16 Q1022 R08/090070 NOSIG
Conditions at: UKDD (DNIPROPETROVSK , UA) observed 0730 UTC 20 August 2019
Temperature: 26.0°C (79°F)
Dewpoint: 16.0°C (61°F) [RH = 54%]
Pressure (altimeter): 30.18 inches Hg (1022.0 mb)
Winds: from the N (10 degrees) at 7 MPH (6 knots; 3.1 m/s)
Visibility: 6 or more miles (10+ km)
Ceiling: ceiling and visibility are OK
Clouds: unknown
Weather: no significant weather observed at this time

METAR text: UKDD 200700Z 02003MPS 340V040 CAVOK 25/17 Q1022 R08/090070 NOSIG
Conditions at: UKDD (DNIPROPETROVSK , UA) observed 0700 UTC 20 August 2019
Temperature: 25.0°C (77°F)
Dewpoint: 17.0°C (63°F) [RH = 61%]
Pressure (altimeter): 30.18 inches Hg (1022.0 mb)
Winds: from the NNE (20 degrees) at 7 MPH (6 knots; 3.1 m/s)
Visibility: 6 or more miles (10+ km)
Ceiling: ceiling and visibility are OK
Clouds: unknown
Weather: no significant weather observed at this time

METAR text: UKDD 200630Z 01003MPS 340V070 CAVOK 24/16 Q1022 R08/090070 NOSIG
Conditions at: UKDD (DNIPROPETROVSK , UA) observed 0630 UTC 20 August 2019
Temperature: 24.0°C (75°F)
Dewpoint: 16.0°C (61°F) [RH = 61%]
Pressure (altimeter): 30.18 inches Hg (1022.0 mb)
Winds: from the N (10 degrees) at 7 MPH (6 knots; 3.1 m/s)
Visibility: 6 or more miles (10+ km)
Ceiling: ceiling and visibility are OK
Clouds: unknown
Weather: no significant weather observed at this time

METAR text: UKDD 200600Z 02003MPS CAVOK 22/15 Q1021 R08/090070 NOSIG
Conditions at: UKDD (DNIPROPETROVSK , UA) observed 0600 UTC 20 August 2019
Temperature: 22.0°C (72°F)
Dewpoint: 15.0°C (59°F) [RH = 65%]
Pressure (altimeter): 30.15 inches Hg (1021.0 mb)
Winds: from the NNE (20 degrees) at 7 MPH (6 knots; 3.1 m/s)
Visibility: 6 or more miles (10+ km)
Ceiling: ceiling and visibility are OK
Clouds: unknown
Weather: no significant weather observed at this time

METAR text: UKDD 200530Z 01003MPS CAVOK 21/15 Q1021 R08/090070 NOSIG
Conditions at: UKDD (DNIPROPETROVSK , UA) observed 0530 UTC 20 August 2019
Temperature: 21.0°C (70°F)
Dewpoint: 15.0°C (59°F) [RH = 69%]
Pressure (altimeter): 30.15 inches Hg (1021.0 mb)
Winds: from the N (10 degrees) at 7 MPH (6 knots; 3.1 m/s)
Visibility: 6 or more miles (10+ km)
Ceiling: ceiling and visibility are OK
Clouds: unknown
Weather: no significant weather observed at this time

METAR text: UKDD 200500Z 03004MPS CAVOK 20/15 Q1021 R08/090070 NOSIG
Conditions at: UKDD (DNIPROPETROVSK , UA) observed 0500 UTC 20 August 2019
Temperature: 20.0°C (68°F)
Dewpoint: 15.0°C (59°F) [RH = 73%]
Pressure (altimeter): 30.15 inches Hg (1021.0 mb)
Winds: from the NNE (30 degrees) at 9 MPH (8 knots; 4.1 m/s)
Visibility: 6 or more miles (10+ km)
Ceiling: ceiling and visibility are OK
Clouds: unknown
Weather: no significant weather observed at this time

METAR text: UKDD 200430Z 02004MPS CAVOK 18/14 Q1021 R08/090070 NOSIG
Conditions at: UKDD (DNIPROPETROVSK , UA) observed 0430 UTC 20 August 2019
Temperature: 18.0°C (64°F)
Dewpoint: 14.0°C (57°F) [RH = 77%]
Pressure (altimeter): 30.15 inches Hg (1021.0 mb)
Winds: from the NNE (20 degrees) at 9 MPH (8 knots; 4.1 m/s)
Visibility: 6 or more miles (10+ km)
Ceiling: ceiling and visibility are OK
Clouds: unknown
Weather: no significant weather observed at this time

METAR text: UKDD 200400Z 02004MPS CAVOK 17/14 Q1021 R08/090070 NOSIG
Conditions at: UKDD (DNIPROPETROVSK , UA) observed 0400 UTC 20 August 2019
Temperature: 17.0°C (63°F)
Dewpoint: 14.0°C (57°F) [RH = 82%]
Pressure (altimeter): 30.15 inches Hg (1021.0 mb)
Winds: from the NNE (20 degrees) at 9 MPH (8 knots; 4.1 m/s)
Visibility: 6 or more miles (10+ km)
Ceiling: ceiling and visibility are OK
Clouds: unknown
Weather: no significant weather observed at this time

METAR text: UKDD 200330Z 02004MPS CAVOK 16/14 Q1021 R08/090070 NOSIG
Conditions at: UKDD (DNIPROPETROVSK , UA) observed 0330 UTC 20 August 2019
Temperature: 16.0°C (61°F)
Dewpoint: 14.0°C (57°F) [RH = 88%]
Pressure (altimeter): 30.15 inches Hg (1021.0 mb)
Winds: from the NNE (20 degrees) at 9 MPH (8 knots; 4.1 m/s)
Visibility: 6 or more miles (10+ km)
Ceiling: ceiling and visibility are OK
Clouds: unknown
Weather: no significant weather observed at this time

METAR text: UKDD 200300Z 02004MPS CAVOK 16/13 Q1021 R08/090070 NOSIG
Conditions at: UKDD (DNIPROPETROVSK , UA) observed 0300 UTC 20 August 2019
Temperature: 16.0°C (61°F)
Dewpoint: 13.0°C (55°F) [RH = 82%]
Pressure (altimeter): 30.15 inches Hg (1021.0 mb)
Winds: from the NNE (20 degrees) at 9 MPH (8 knots; 4.1 m/s)
Visibility: 6 or more miles (10+ km)
Ceiling: ceiling and visibility are OK
Clouds: unknown
Weather: no significant weather observed at this time

METAR text: UKDD 200230Z 02004MPS CAVOK 16/13 Q1020 R08/090070 NOSIG
Conditions at: UKDD (DNIPROPETROVSK , UA) observed 0230 UTC 20 August 2019
Temperature: 16.0°C (61°F)
Dewpoint: 13.0°C (55°F) [RH = 82%]
Pressure (altimeter): 30.12 inches Hg (1020.0 mb)
Winds: from the NNE (20 degrees) at 9 MPH (8 knots; 4.1 m/s)
Visibility: 6 or more miles (10+ km)
Ceiling: ceiling and visibility are OK
Clouds: unknown
Weather: no significant weather observed at this time

METAR text: UKDD 200200Z 02004MPS CAVOK 16/13 Q1020 R08/090070 NOSIG
Conditions at: UKDD (DNIPROPETROVSK , UA) observed 0200 UTC 20 August 2019
Temperature: 16.0°C (61°F)
Dewpoint: 13.0°C (55°F) [RH = 82%]
Pressure (altimeter): 30.12 inches Hg (1020.0 mb)
Winds: from the NNE (20 degrees) at 9 MPH (8 knots; 4.1 m/s)
Visibility: 6 or more miles (10+ km)
Ceiling: ceiling and visibility are OK
Clouds: unknown
Weather: no significant weather observed at this time

METAR text: UKDD 200130Z 02004MPS CAVOK 16/13 Q1020 R08/090070 NOSIG
Conditions at: UKDD (DNIPROPETROVSK , UA) observed 0130 UTC 20 August 2019
Temperature: 16.0°C (61°F)
Dewpoint: 13.0°C (55°F) [RH = 82%]
Pressure (altimeter): 30.12 inches Hg (1020.0 mb)
Winds: from the NNE (20 degrees) at 9 MPH (8 knots; 4.1 m/s)
Visibility: 6 or more miles (10+ km)
Ceiling: ceiling and visibility are OK
Clouds: unknown
Weather: no significant weather observed at this time

METAR text: UKDD 200100Z 02004MPS CAVOK 16/13 Q1020 R08/090070 NOSIG
Conditions at: UKDD (DNIPROPETROVSK , UA) observed 0100 UTC 20 August 2019
Temperature: 16.0°C (61°F)
Dewpoint: 13.0°C (55°F) [RH = 82%]
Pressure (altimeter): 30.12 inches Hg (1020.0 mb)
Winds: from the NNE (20 degrees) at 9 MPH (8 knots; 4.1 m/s)
Visibility: 6 or more miles (10+ km)
Ceiling: ceiling and visibility are OK
Clouds: unknown
Weather: no significant weather observed at this time

METAR text: UKDD 200030Z 01004MPS CAVOK 16/13 Q1020 R08/090070 NOSIG
Conditions at: UKDD (DNIPROPETROVSK , UA) observed 0030 UTC 20 August 2019
Temperature: 16.0°C (61°F)
Dewpoint: 13.0°C (55°F) [RH = 82%]
Pressure (altimeter): 30.12 inches Hg (1020.0 mb)
Winds: from the N (10 degrees) at 9 MPH (8 knots; 4.1 m/s)
Visibility: 6 or more miles (10+ km)
Ceiling: ceiling and visibility are OK
Clouds: unknown
Weather: no significant weather observed at this time

METAR text: UKDD 200000Z 02004MPS 350V060 CAVOK 16/13 Q1020 R26/090070 NOSIG
Conditions at: UKDD (DNIPROPETROVSK , UA) observed 0000 UTC 20 August 2019
Temperature: 16.0°C (61°F)
Dewpoint: 13.0°C (55°F) [RH = 82%]
Pressure (altimeter): 30.12 inches Hg (1020.0 mb)
Winds: from the NNE (20 degrees) at 9 MPH (8 knots; 4.1 m/s)
Visibility: 6 or more miles (10+ km)
Ceiling: ceiling and visibility are OK
Clouds: unknown
Weather: no significant weather observed at this time

METAR text: UKDD 192330Z 36005MPS 320V040 CAVOK 16/13 Q1020 R26/090070 NOSIG
Conditions at: UKDD (DNIPROPETROVSK , UA) observed 2330 UTC 19 August 2019
Temperature: 16.0°C (61°F)
Dewpoint: 13.0°C (55°F) [RH = 82%]
Pressure (altimeter): 30.12 inches Hg (1020.0 mb)
Winds: from the N (360 degrees) at 12 MPH (10 knots; 5.1 m/s)
Visibility: 6 or more miles (10+ km)
Ceiling: ceiling and visibility are OK
Clouds: unknown
Weather: no significant weather observed at this time

METAR text: UKDD 192300Z 36004MPS 330V050 CAVOK 17/13 Q1020 R26/090070 NOSIG
Conditions at: UKDD (DNIPROPETROVSK , UA) observed 2300 UTC 19 August 2019
Temperature: 17.0°C (63°F)
Dewpoint: 13.0°C (55°F) [RH = 77%]
Pressure (altimeter): 30.12 inches Hg (1020.0 mb)
Winds: from the N (360 degrees) at 9 MPH (8 knots; 4.1 m/s)
Visibility: 6 or more miles (10+ km)
Ceiling: ceiling and visibility are OK
Clouds: unknown
Weather: no significant weather observed at this time

METAR text: UKDD 192230Z 36004MPS 310V070 CAVOK 17/13 Q1020 R26/090070 NOSIG
Conditions at: UKDD (DNIPROPETROVSK , UA) observed 2230 UTC 19 August 2019
Temperature: 17.0°C (63°F)
Dewpoint: 13.0°C (55°F) [RH = 77%]
Pressure (altimeter): 30.12 inches Hg (1020.0 mb)
Winds: from the N (360 degrees) at 9 MPH (8 knots; 4.1 m/s)
Visibility: 6 or more miles (10+ km)
Ceiling: ceiling and visibility are OK
Clouds: unknown
Weather: no significant weather observed at this time

METAR text: UKDD 192200Z 35005MPS 320V030 CAVOK 17/13 Q1020 R26/090070 NOSIG
Conditions at: UKDD (DNIPROPETROVSK , UA) observed 2200 UTC 19 August 2019
Temperature: 17.0°C (63°F)
Dewpoint: 13.0°C (55°F) [RH = 77%]
Pressure (altimeter): 30.12 inches Hg (1020.0 mb)
Winds: from the N (350 degrees) at 12 MPH (10 knots; 5.1 m/s)
Visibility: 6 or more miles (10+ km)
Ceiling: ceiling and visibility are OK
Clouds: unknown
Weather: no significant weather observed at this time

METAR text: UKDD 192130Z 35005MPS CAVOK 17/13 Q1020 R26/090070 NOSIG
Conditions at: UKDD (DNIPROPETROVSK , UA) observed 2130 UTC 19 August 2019
Temperature: 17.0°C (63°F)
Dewpoint: 13.0°C (55°F) [RH = 77%]
Pressure (altimeter): 30.12 inches Hg (1020.0 mb)
Winds: from the N (350 degrees) at 12 MPH (10 knots; 5.1 m/s)
Visibility: 6 or more miles (10+ km)
Ceiling: ceiling and visibility are OK
Clouds: unknown
Weather: no significant weather observed at this time

METAR text: UKDD 192100Z 36004MPS CAVOK 18/13 Q1020 R26/090070 NOSIG
Conditions at: UKDD (DNIPROPETROVSK , UA) observed 2100 UTC 19 August 2019
Temperature: 18.0°C (64°F)
Dewpoint: 13.0°C (55°F) [RH = 73%]
Pressure (altimeter): 30.12 inches Hg (1020.0 mb)
Winds: from the N (360 degrees) at 9 MPH (8 knots; 4.1 m/s)
Visibility: 6 or more miles (10+ km)
Ceiling: ceiling and visibility are OK
Clouds: unknown
Weather: no significant weather observed at this time

METAR text: UKDD 192030Z 35004MPS CAVOK 18/13 Q1020 R26/090070 NOSIG
Conditions at: UKDD (DNIPROPETROVSK , UA) observed 2030 UTC 19 August 2019
Temperature: 18.0°C (64°F)
Dewpoint: 13.0°C (55°F) [RH = 73%]
Pressure (altimeter): 30.12 inches Hg (1020.0 mb)
Winds: from the N (350 degrees) at 9 MPH (8 knots; 4.1 m/s)
Visibility: 6 or more miles (10+ km)
Ceiling: ceiling and visibility are OK
Clouds: unknown
Weather: no significant weather observed at this time

METAR text: UKDD 192000Z 34004MPS CAVOK 18/13 Q1020 R26/090070 NOSIG
Conditions at: UKDD (DNIPROPETROVSK , UA) observed 2000 UTC 19 August 2019
Temperature: 18.0°C (64°F)
Dewpoint: 13.0°C (55°F) [RH = 73%]
Pressure (altimeter): 30.12 inches Hg (1020.0 mb)
Winds: from the NNW (340 degrees) at 9 MPH (8 knots; 4.1 m/s)
Visibility: 6 or more miles (10+ km)
Ceiling: ceiling and visibility are OK
Clouds: unknown
Weather: no significant weather observed at this time

METAR text: UKDD 191930Z 35004MPS 330V040 CAVOK 19/13 Q1020 R26/090070 NOSIG
Conditions at: UKDD (DNIPROPETROVSK , UA) observed 1930 UTC 19 August 2019
Temperature: 19.0°C (66°F)
Dewpoint: 13.0°C (55°F) [RH = 68%]
Pressure (altimeter): 30.12 inches Hg (1020.0 mb)
Winds: from the N (350 degrees) at 9 MPH (8 knots; 4.1 m/s)
Visibility: 6 or more miles (10+ km)
Ceiling: ceiling and visibility are OK
Clouds: unknown
Weather: no significant weather observed at this time

METAR text: UKDD 191900Z 34004MPS CAVOK 19/13 Q1020 R26/090070 NOSIG
Conditions at: UKDD (DNIPROPETROVSK , UA) observed 1900 UTC 19 August 2019
Temperature: 19.0°C (66°F)
Dewpoint: 13.0°C (55°F) [RH = 68%]
Pressure (altimeter): 30.12 inches Hg (1020.0 mb)
Winds: from the NNW (340 degrees) at 9 MPH (8 knots; 4.1 m/s)
Visibility: 6 or more miles (10+ km)
Ceiling: ceiling and visibility are OK
Clouds: unknown
Weather: no significant weather observed at this time

METAR text: UKDD 191830Z 34004MPS CAVOK 19/13 Q1020 R26/090070 NOSIG
Conditions at: UKDD (DNIPROPETROVSK , UA) observed 1830 UTC 19 August 2019
Temperature: 19.0°C (66°F)
Dewpoint: 13.0°C (55°F) [RH = 68%]
Pressure (altimeter): 30.12 inches Hg (1020.0 mb)
Winds: from the NNW (340 degrees) at 9 MPH (8 knots; 4.1 m/s)
Visibility: 6 or more miles (10+ km)
Ceiling: ceiling and visibility are OK
Clouds: unknown
Weather: no significant weather observed at this time

METAR text: UKDD 191800Z 33004MPS CAVOK 20/14 Q1020 R26/090070 NOSIG
Conditions at: UKDD (DNIPROPETROVSK , UA) observed 1800 UTC 19 August 2019
Temperature: 20.0°C (68°F)
Dewpoint: 14.0°C (57°F) [RH = 68%]
Pressure (altimeter): 30.12 inches Hg (1020.0 mb)
Winds: from the NNW (330 degrees) at 9 MPH (8 knots; 4.1 m/s)
Visibility: 6 or more miles (10+ km)
Ceiling: ceiling and visibility are OK
Clouds: unknown
Weather: no significant weather observed at this time

METAR text: UKDD 191730Z 33004MPS CAVOK 20/14 Q1019 R26/090070 NOSIG
Conditions at: UKDD (DNIPROPETROVSK , UA) observed 1730 UTC 19 August 2019
Temperature: 20.0°C (68°F)
Dewpoint: 14.0°C (57°F) [RH = 68%]
Pressure (altimeter): 30.09 inches Hg (1019.0 mb)
Winds: from the NNW (330 degrees) at 9 MPH (8 knots; 4.1 m/s)
Visibility: 6 or more miles (10+ km)
Ceiling: ceiling and visibility are OK
Clouds: unknown
Weather: no significant weather observed at this time

METAR text: UKDD 191700Z 33003MPS CAVOK 21/13 Q1019 R08/090070 NOSIG
Conditions at: UKDD (DNIPROPETROVSK , UA) observed 1700 UTC 19 August 2019
Temperature: 21.0°C (70°F)
Dewpoint: 13.0°C (55°F) [RH = 60%]
Pressure (altimeter): 30.09 inches Hg (1019.0 mb)
Winds: from the NNW (330 degrees) at 7 MPH (6 knots; 3.1 m/s)
Visibility: 6 or more miles (10+ km)
Ceiling: ceiling and visibility are OK
Clouds: unknown
Weather: no significant weather observed at this time

METAR text: UKDD 191630Z 34001MPS CAVOK 22/14 Q1019 R08/090070 NOSIG
Conditions at: UKDD (DNIPROPETROVSK , UA) observed 1630 UTC 19 August 2019
Temperature: 22.0°C (72°F)
Dewpoint: 14.0°C (57°F) [RH = 60%]
Pressure (altimeter): 30.09 inches Hg (1019.0 mb)
Winds: from the NNW (340 degrees) at 2 MPH (2 knots; 1.0 m/s)
Visibility: 6 or more miles (10+ km)
Ceiling: ceiling and visibility are OK
Clouds: unknown
Weather: no significant weather observed at this time

METAR text: UKDD 191600Z 34002MPS CAVOK 24/14 Q1019 R08/090070 NOSIG
Conditions at: UKDD (DNIPROPETROVSK , UA) observed 1600 UTC 19 August 2019
Temperature: 24.0°C (75°F)
Dewpoint: 14.0°C (57°F) [RH = 54%]
Pressure (altimeter): 30.09 inches Hg (1019.0 mb)
Winds: from the NNW (340 degrees) at 5 MPH (4 knots; 2.1 m/s)
Visibility: 6 or more miles (10+ km)
Ceiling: ceiling and visibility are OK
Clouds: unknown
Weather: no significant weather observed at this time

METAR text: UKDD 191530Z 36002MPS 330V050 CAVOK 26/14 Q1019 R08/090070 NOSIG
Conditions at: UKDD (DNIPROPETROVSK , UA) observed 1530 UTC 19 August 2019
Temperature: 26.0°C (79°F)
Dewpoint: 14.0°C (57°F) [RH = 48%]
Pressure (altimeter): 30.09 inches Hg (1019.0 mb)
Winds: from the N (360 degrees) at 5 MPH (4 knots; 2.1 m/s)
Visibility: 6 or more miles (10+ km)
Ceiling: ceiling and visibility are OK
Clouds: unknown
Weather: no significant weather observed at this time

METAR text: UKDD 191500Z 35003MPS 310V040 CAVOK 26/14 Q1018 R08/090070 NOSIG
Conditions at: UKDD (DNIPROPETROVSK , UA) observed 1500 UTC 19 August 2019
Temperature: 26.0°C (79°F)
Dewpoint: 14.0°C (57°F) [RH = 48%]
Pressure (altimeter): 30.06 inches Hg (1018.0 mb)
Winds: from the N (350 degrees) at 7 MPH (6 knots; 3.1 m/s)
Visibility: 6 or more miles (10+ km)
Ceiling: ceiling and visibility are OK
Clouds: unknown
Weather: no significant weather observed at this time

METAR text: UKDD 191430Z 01004MPS 320V050 CAVOK 27/13 Q1018 R08/090070 NOSIG
Conditions at: UKDD (DNIPROPETROVSK , UA) observed 1430 UTC 19 August 2019
Temperature: 27.0°C (81°F)
Dewpoint: 13.0°C (55°F) [RH = 42%]
Pressure (altimeter): 30.06 inches Hg (1018.0 mb)
Winds: from the N (10 degrees) at 9 MPH (8 knots; 4.1 m/s)
Visibility: 6 or more miles (10+ km)
Ceiling: ceiling and visibility are OK
Clouds: unknown
Weather: no significant weather observed at this time

METAR text: UKDD 191400Z 36003MPS 310V040 CAVOK 27/14 Q1018 R08/090070 NOSIG
Conditions at: UKDD (DNIPROPETROVSK , UA) observed 1400 UTC 19 August 2019
Temperature: 27.0°C (81°F)
Dewpoint: 14.0°C (57°F) [RH = 45%]
Pressure (altimeter): 30.06 inches Hg (1018.0 mb)
Winds: from the N (360 degrees) at 7 MPH (6 knots; 3.1 m/s)
Visibility: 6 or more miles (10+ km)
Ceiling: ceiling and visibility are OK
Clouds: unknown
Weather: no significant weather observed at this time

METAR text: UKDD 191330Z 34003MPS 290V040 CAVOK 28/15 Q1018 R08/090070 NOSIG
Conditions at: UKDD (DNIPROPETROVSK , UA) observed 1330 UTC 19 August 2019
Temperature: 28.0°C (82°F)
Dewpoint: 15.0°C (59°F) [RH = 45%]
Pressure (altimeter): 30.06 inches Hg (1018.0 mb)
Winds: from the NNW (340 degrees) at 7 MPH (6 knots; 3.1 m/s)
Visibility: 6 or more miles (10+ km)
Ceiling: ceiling and visibility are OK
Clouds: unknown
Weather: no significant weather observed at this time

METAR text: UKDD 191300Z 36003MPS 290V050 CAVOK 27/14 Q1018 R08/090070 NOSIG
Conditions at: UKDD (DNIPROPETROVSK , UA) observed 1300 UTC 19 August 2019
Temperature: 27.0°C (81°F)
Dewpoint: 14.0°C (57°F) [RH = 45%]
Pressure (altimeter): 30.06 inches Hg (1018.0 mb)
Winds: from the N (360 degrees) at 7 MPH (6 knots; 3.1 m/s)
Visibility: 6 or more miles (10+ km)
Ceiling: ceiling and visibility are OK
Clouds: unknown
Weather: no significant weather observed at this time

METAR text: UKDD 191230Z 32004MPS CAVOK 26/14 Q1018 R26/090070 NOSIG
Conditions at: UKDD (DNIPROPETROVSK , UA) observed 1230 UTC 19 August 2019
Temperature: 26.0°C (79°F)
Dewpoint: 14.0°C (57°F) [RH = 48%]
Pressure (altimeter): 30.06 inches Hg (1018.0 mb)
Winds: from the NW (320 degrees) at 9 MPH (8 knots; 4.1 m/s)
Visibility: 6 or more miles (10+ km)
Ceiling: ceiling and visibility are OK
Clouds: unknown
Weather: no significant weather observed at this time

METAR text: UKDD 191200Z 02005MPS CAVOK 27/14 Q1018 R26/090070 NOSIG
Conditions at: UKDD (DNIPROPETROVSK , UA) observed 1200 UTC 19 August 2019
Temperature: 27.0°C (81°F)
Dewpoint: 14.0°C (57°F) [RH = 45%]
Pressure (altimeter): 30.06 inches Hg (1018.0 mb)
Winds: from the NNE (20 degrees) at 12 MPH (10 knots; 5.1 m/s)
Visibility: 6 or more miles (10+ km)
Ceiling: ceiling and visibility are OK
Clouds: unknown
Weather: no significant weather observed at this time

METAR text: UKDD 191130Z 36003MPS 280V060 CAVOK 27/15 Q1018 R08/090070 NOSIG
Conditions at: UKDD (DNIPROPETROVSK , UA) observed 1130 UTC 19 August 2019
Temperature: 27.0°C (81°F)
Dewpoint: 15.0°C (59°F) [RH = 48%]
Pressure (altimeter): 30.06 inches Hg (1018.0 mb)
Winds: from the N (360 degrees) at 7 MPH (6 knots; 3.1 m/s)
Visibility: 6 or more miles (10+ km)
Ceiling: ceiling and visibility are OK
Clouds: unknown
Weather: no significant weather observed at this time

METAR text: UKDD 191100Z 36004MPS 320V050 CAVOK 27/14 Q1019 R08/090070 NOSIG
Conditions at: UKDD (DNIPROPETROVSK , UA) observed 1100 UTC 19 August 2019
Temperature: 27.0°C (81°F)
Dewpoint: 14.0°C (57°F) [RH = 45%]
Pressure (altimeter): 30.09 inches Hg (1019.0 mb)
Winds: from the N (360 degrees) at 9 MPH (8 knots; 4.1 m/s)
Visibility: 6 or more miles (10+ km)
Ceiling: ceiling and visibility are OK
Clouds: unknown
Weather: no significant weather observed at this time

METAR text: UKDD 191030Z 01006MPS 340V080 CAVOK 26/14 Q1018 R08/090070 NOSIG
Conditions at: UKDD (DNIPROPETROVSK , UA) observed 1030 UTC 19 August 2019
Temperature: 26.0°C (79°F)
Dewpoint: 14.0°C (57°F) [RH = 48%]
Pressure (altimeter): 30.06 inches Hg (1018.0 mb)
Winds: from the N (10 degrees) at 14 MPH (12 knots; 6.2 m/s)
Visibility: 6 or more miles (10+ km)
Ceiling: ceiling and visibility are OK
Clouds: unknown
Weather: no significant weather observed at this time

METAR text: UKDD 191000Z 01005MPS 320V050 CAVOK 26/15 Q1018 R08/090070 NOSIG
Conditions at: UKDD (DNIPROPETROVSK , UA) observed 1000 UTC 19 August 2019
Temperature: 26.0°C (79°F)
Dewpoint: 15.0°C (59°F) [RH = 51%]
Pressure (altimeter): 30.06 inches Hg (1018.0 mb)
Winds: from the N (10 degrees) at 12 MPH (10 knots; 5.1 m/s)
Visibility: 6 or more miles (10+ km)
Ceiling: ceiling and visibility are OK
Clouds: unknown
Weather: no significant weather observed at this time

METAR text: UKDD 190930Z 02004MPS 320V060 CAVOK 26/15 Q1018 R08/090070 NOSIG
Conditions at: UKDD (DNIPROPETROVSK , UA) observed 0930 UTC 19 August 2019
Temperature: 26.0°C (79°F)
Dewpoint: 15.0°C (59°F) [RH = 51%]
Pressure (altimeter): 30.06 inches Hg (1018.0 mb)
Winds: from the NNE (20 degrees) at 9 MPH (8 knots; 4.1 m/s)
Visibility: 6 or more miles (10+ km)
Ceiling: ceiling and visibility are OK
Clouds: unknown
Weather: no significant weather observed at this time

METAR text: UKDD 190900Z 01004MPS 330V050 CAVOK 25/15 Q1018 R08/090070 NOSIG
Conditions at: UKDD (DNIPROPETROVSK , UA) observed 0900 UTC 19 August 2019
Temperature: 25.0°C (77°F)
Dewpoint: 15.0°C (59°F) [RH = 54%]
Pressure (altimeter): 30.06 inches Hg (1018.0 mb)
Winds: from the N (10 degrees) at 9 MPH (8 knots; 4.1 m/s)
Visibility: 6 or more miles (10+ km)
Ceiling: ceiling and visibility are OK
Clouds: unknown
Weather: no significant weather observed at this time

METAR text: UKDD 190830Z 02004MPS 340V110 CAVOK 25/15 Q1018 R08/090070 NOSIG
Conditions at: UKDD (DNIPROPETROVSK , UA) observed 0830 UTC 19 August 2019
Temperature: 25.0°C (77°F)
Dewpoint: 15.0°C (59°F) [RH = 54%]
Pressure (altimeter): 30.06 inches Hg (1018.0 mb)
Winds: from the NNE (20 degrees) at 9 MPH (8 knots; 4.1 m/s)
Visibility: 6 or more miles (10+ km)
Ceiling: ceiling and visibility are OK
Clouds: unknown
Weather: no significant weather observed at this time

Forecast for: UKDD (DNIPROPETROVSK , UA)
Text: TAF UKDD 201701Z 2018/2118 03005MPS CAVOK TX31/2112Z TN17/2102Z
Forecast period: 1800 UTC 20 August 2019 to 1800 UTC 21 August 2019
Forecast type: FROM: standard forecast or significant change
Winds: from the NNE (30 degrees) at 12 MPH (10 knots; 5.1 m/s)
Visibility: 6 or more miles 10+ km)
Ceiling: unknown
Clouds: missing
Weather: no significant weather forecast for this period